sensor_id;sensor_type;location;lat;lon;timestamp;pressure;altitude;pressure_sealevel;temperature;humidity
16481;BME280;44634;54.110;12.138;2023-02-20T00:01:23;101548.19;;;7.67;100.00
16481;BME280;44634;54.110;12.138;2023-02-20T00:03:52;101516.03;;;7.62;100.00
16481;BME280;44634;54.110;12.138;2023-02-20T00:06:21;101517.97;;;7.72;100.00
16481;BME280;44634;54.110;12.138;2023-02-20T00:08:49;101507.13;;;7.50;100.00
16481;BME280;44634;54.110;12.138;2023-02-20T00:11:17;101492.84;;;7.81;100.00
16481;BME280;44634;54.110;12.138;2023-02-20T00:13:45;101503.44;;;7.40;100.00
16481;BME280;44634;54.110;12.138;2023-02-20T00:16:13;101489.72;;;7.35;100.00
16481;BME280;44634;54.110;12.138;2023-02-20T00:18:43;101485.44;;;7.46;100.00
16481;BME280;44634;54.110;12.138;2023-02-20T00:21:11;101475.56;;;7.50;100.00
16481;BME280;44634;54.110;12.138;2023-02-20T00:23:40;101464.88;;;7.66;100.00
16481;BME280;44634;54.110;12.138;2023-02-20T00:26:08;101475.94;;;7.17;100.00
16481;BME280;44634;54.110;12.138;2023-02-20T00:28:37;101456.91;;;7.13;100.00
16481;BME280;44634;54.110;12.138;2023-02-20T00:31:06;101459.63;;;7.12;100.00
16481;BME280;44634;54.110;12.138;2023-02-20T00:33:34;101426.13;;;7.28;100.00
16481;BME280;44634;54.110;12.138;2023-02-20T00:36:02;101408.19;;;6.94;100.00
16481;BME280;44634;54.110;12.138;2023-02-20T00:38:30;101400.53;;;6.76;100.00
16481;BME280;44634;54.110;12.138;2023-02-20T00:40:59;101352.75;;;7.38;100.00
16481;BME280;44634;54.110;12.138;2023-02-20T00:43:27;101352.66;;;7.12;100.00
16481;BME280;44634;54.110;12.138;2023-02-20T00:45:57;101346.72;;;7.36;100.00
16481;BME280;44634;54.110;12.138;2023-02-20T00:48:24;101342.13;;;7.12;100.00
16481;BME280;44634;54.110;12.138;2023-02-20T00:50:52;101344.16;;;6.68;100.00
16481;BME280;44634;54.110;12.138;2023-02-20T00:53:20;101292.09;;;6.87;100.00
16481;BME280;44634;54.110;12.138;2023-02-20T00:55:47;101289.47;;;6.87;100.00
16481;BME280;44634;54.110;12.138;2023-02-20T00:58:17;101265.59;;;6.90;100.00
16481;BME280;44634;54.110;12.138;2023-02-20T01:00:44;101267.06;;;6.81;100.00
16481;BME280;44634;54.110;12.138;2023-02-20T01:03:12;101269.97;;;7.16;100.00
16481;BME280;44634;54.110;12.138;2023-02-20T01:05:40;101230.56;;;6.77;100.00
16481;BME280;44634;54.110;12.138;2023-02-20T01:08:08;101216.09;;;6.84;100.00
16481;BME280;44634;54.110;12.138;2023-02-20T01:10:35;101211.16;;;7.05;100.00
16481;BME280;44634;54.110;12.138;2023-02-20T01:13:03;101222.78;;;6.75;100.00
16481;BME280;44634;54.110;12.138;2023-02-20T01:15:32;101201.53;;;6.78;100.00
16481;BME280;44634;54.110;12.138;2023-02-20T01:18:00;101187.31;;;6.95;100.00
16481;BME280;44634;54.110;12.138;2023-02-20T01:20:28;101179.25;;;6.71;100.00
16481;BME280;44634;54.110;12.138;2023-02-20T01:22:56;101143.97;;;6.88;100.00
16481;BME280;44634;54.110;12.138;2023-02-20T01:25:23;101141.00;;;6.28;100.00
16481;BME280;44634;54.110;12.138;2023-02-20T01:27:51;101120.38;;;6.74;100.00
16481;BME280;44634;54.110;12.138;2023-02-20T01:30:19;101108.31;;;6.84;100.00
16481;BME280;44634;54.110;12.138;2023-02-20T01:32:48;101124.84;;;6.46;100.00
16481;BME280;44634;54.110;12.138;2023-02-20T01:35:16;101118.09;;;6.82;100.00
16481;BME280;44634;54.110;12.138;2023-02-20T01:37:44;101123.94;;;6.60;100.00
16481;BME280;44634;54.110;12.138;2023-02-20T01:40:14;101108.00;;;6.76;100.00
16481;BME280;44634;54.110;12.138;2023-02-20T01:42:42;101098.22;;;6.91;100.00
16481;BME280;44634;54.110;12.138;2023-02-20T01:45:24;101103.25;;;6.55;100.00
16481;BME280;44634;54.110;12.138;2023-02-20T01:47:55;101080.88;;;7.01;100.00
16481;BME280;44634;54.110;12.138;2023-02-20T01:50:26;101069.97;;;6.81;100.00
16481;BME280;44634;54.110;12.138;2023-02-20T01:52:59;101051.66;;;6.67;100.00
16481;BME280;44634;54.110;12.138;2023-02-20T01:55:30;101042.41;;;6.87;100.00
16481;BME280;44634;54.110;12.138;2023-02-20T01:58:07;101043.56;;;6.70;100.00
16481;BME280;44634;54.110;12.138;2023-02-20T02:00:37;101026.00;;;6.83;100.00
16481;BME280;44634;54.110;12.138;2023-02-20T02:03:14;101027.34;;;6.89;100.00
16481;BME280;44634;54.110;12.138;2023-02-20T02:05:46;101015.38;;;6.72;100.00
16481;BME280;44634;54.110;12.138;2023-02-20T02:08:17;101028.22;;;6.51;100.00
16481;BME280;44634;54.110;12.138;2023-02-20T02:10:50;101017.78;;;6.88;100.00
16481;BME280;44634;54.110;12.138;2023-02-20T02:13:19;101011.09;;;6.59;100.00
16481;BME280;44634;54.110;12.138;2023-02-20T02:15:50;101015.38;;;6.72;100.00
16481;BME280;44634;54.110;12.138;2023-02-20T02:18:49;101002.63;;;7.04;100.00
16481;BME280;44634;54.110;12.138;2023-02-20T02:24:53;101019.47;;;6.89;100.00
16481;BME280;44634;54.110;12.138;2023-02-20T02:28:02;100994.91;;;6.52;100.00
16481;BME280;44634;54.110;12.138;2023-02-20T02:33:59;100969.03;;;6.33;100.00
16481;BME280;44634;54.110;12.138;2023-02-20T02:36:37;100956.25;;;6.41;100.00
16481;BME280;44634;54.110;12.138;2023-02-20T02:39:16;100949.81;;;6.58;100.00
16481;BME280;44634;54.110;12.138;2023-02-20T02:41:52;100939.22;;;6.47;100.00
16481;BME280;44634;54.110;12.138;2023-02-20T02:44:26;100919.69;;;6.51;100.00
16481;BME280;44634;54.110;12.138;2023-02-20T02:46:59;100904.75;;;6.51;100.00
16481;BME280;44634;54.110;12.138;2023-02-20T02:49:34;100915.19;;;6.28;100.00
16481;BME280;44634;54.110;12.138;2023-02-20T02:52:06;100906.72;;;6.61;100.00
16481;BME280;44634;54.110;12.138;2023-02-20T02:54:36;100912.56;;;6.77;100.00
16481;BME280;44634;54.110;12.138;2023-02-20T02:57:19;100912.03;;;6.97;100.00
16481;BME280;44634;54.110;12.138;2023-02-20T02:59:51;100910.25;;;6.85;100.00
16481;BME280;44634;54.110;12.138;2023-02-20T03:02:21;100904.16;;;6.84;100.00
16481;BME280;44634;54.110;12.138;2023-02-20T03:04:51;100904.75;;;6.51;100.00
16481;BME280;44634;54.110;12.138;2023-02-20T03:07:22;100875.78;;;7.13;100.00
16481;BME280;44634;54.110;12.138;2023-02-20T03:09:53;100885.31;;;6.91;100.00
16481;BME280;44634;54.110;12.138;2023-02-20T03:12:25;100879.72;;;6.71;100.00
16481;BME280;44634;54.110;12.138;2023-02-20T03:14:58;100868.41;;;6.95;100.00
16481;BME280;44634;54.110;12.138;2023-02-20T03:17:47;100879.09;;;6.92;100.00
16481;BME280;44634;54.110;12.138;2023-02-20T03:20:20;100868.75;;;6.77;100.00
16481;BME280;44634;54.110;12.138;2023-02-20T03:22:53;100887.03;;;6.79;100.00
16481;BME280;44634;54.110;12.138;2023-02-20T03:25:25;100907.81;;;6.95;100.00
16481;BME280;44634;54.110;12.138;2023-02-20T03:27:58;100894.41;;;7.10;100.00
16481;BME280;44634;54.110;12.138;2023-02-20T03:30:28;100884.38;;;6.92;100.00
16481;BME280;44634;54.110;12.138;2023-02-20T03:33:03;100893.94;;;6.93;100.00
16481;BME280;44634;54.110;12.138;2023-02-20T03:35:50;100890.41;;;7.05;100.00
16481;BME280;44634;54.110;12.138;2023-02-20T03:38:40;100871.06;;;7.06;100.00
16481;BME280;44634;54.110;12.138;2023-02-20T03:41:27;100862.16;;;7.43;100.00
16481;BME280;44634;54.110;12.138;2023-02-20T03:44:15;100857.88;;;6.95;100.00
16481;BME280;44634;54.110;12.138;2023-02-20T03:46:46;100849.75;;;7.22;100.00
16481;BME280;44634;54.110;12.138;2023-02-20T03:49:19;100840.19;;;7.21;100.00
16481;BME280;44634;54.110;12.138;2023-02-20T03:51:47;100851.72;;;7.07;100.00
16481;BME280;44634;54.110;12.138;2023-02-20T03:54:27;100857.78;;;6.96;100.00
16481;BME280;44634;54.110;12.138;2023-02-20T03:56:58;100842.78;;;7.44;100.00
16481;BME280;44634;54.110;12.138;2023-02-20T03:59:31;100828.56;;;7.47;100.00
16481;BME280;44634;54.110;12.138;2023-02-20T04:02:04;100825.03;;;7.24;100.00
16481;BME280;44634;54.110;12.138;2023-02-20T04:04:35;100846.06;;;7.24;100.00
16481;BME280;44634;54.110;12.138;2023-02-20T04:07:08;100828.69;;;7.45;100.00
16481;BME280;44634;54.110;12.138;2023-02-20T04:09:41;100808.09;;;7.39;100.00
16481;BME280;44634;54.110;12.138;2023-02-20T04:12:16;100818.84;;;7.36;100.00
16481;BME280;44634;54.110;12.138;2023-02-20T04:14:46;100804.41;;;7.42;100.00
16481;BME280;44634;54.110;12.138;2023-02-20T04:17:21;100820.50;;;7.37;100.00
16481;BME280;44634;54.110;12.138;2023-02-20T04:19:51;100803.72;;;7.62;100.00
16481;BME280;44634;54.110;12.138;2023-02-20T04:22:22;100779.19;;;7.39;100.00
16481;BME280;44634;54.110;12.138;2023-02-20T04:24:55;100780.16;;;7.61;100.00
16481;BME280;44634;54.110;12.138;2023-02-20T04:27:24;100781.56;;;7.42;100.00
16481;BME280;44634;54.110;12.138;2023-02-20T04:29:52;100773.16;;;7.37;100.00
16481;BME280;44634;54.110;12.138;2023-02-20T04:32:20;100741.66;;;7.93;100.00
16481;BME280;44634;54.110;12.138;2023-02-20T04:34:48;100718.81;;;7.83;100.00
16481;BME280;44634;54.110;12.138;2023-02-20T04:37:17;100724.31;;;7.57;100.00
16481;BME280;44634;54.110;12.138;2023-02-20T04:39:46;100707.31;;;7.72;100.00
16481;BME280;44634;54.110;12.138;2023-02-20T04:42:15;100710.91;;;7.71;100.00
16481;BME280;44634;54.110;12.138;2023-02-20T04:44:43;100708.38;;;7.92;100.00
16481;BME280;44634;54.110;12.138;2023-02-20T04:47:13;100707.91;;;7.76;100.00
16481;BME280;44634;54.110;12.138;2023-02-20T04:49:42;100700.13;;;7.63;100.00
16481;BME280;44634;54.110;12.138;2023-02-20T04:52:09;100704.56;;;7.96;100.00
16481;BME280;44634;54.110;12.138;2023-02-20T04:54:37;100724.69;;;7.86;100.00
16481;BME280;44634;54.110;12.138;2023-02-20T04:57:05;100686.72;;;8.11;100.00
16481;BME280;44634;54.110;12.138;2023-02-20T04:59:34;100686.06;;;8.41;100.00
16481;BME280;44634;54.110;12.138;2023-02-20T05:02:02;100693.59;;;8.23;100.00
16481;BME280;44634;54.110;12.138;2023-02-20T05:04:30;100675.91;;;8.25;100.00
16481;BME280;44634;54.110;12.138;2023-02-20T05:06:57;100660.34;;;8.22;100.00
16481;BME280;44634;54.110;12.138;2023-02-20T05:09:25;100650.25;;;8.39;100.00
16481;BME280;44634;54.110;12.138;2023-02-20T05:11:54;100646.81;;;8.27;100.00
16481;BME280;44634;54.110;12.138;2023-02-20T05:14:22;100648.28;;;8.09;100.00
16481;BME280;44634;54.110;12.138;2023-02-20T05:16:52;100644.09;;;8.06;100.00
16481;BME280;44634;54.110;12.138;2023-02-20T05:19:19;100645.06;;;8.05;100.00
16481;BME280;44634;54.110;12.138;2023-02-20T05:21:47;100656.41;;;8.17;100.00
16481;BME280;44634;54.110;12.138;2023-02-20T05:24:32;100652.94;;;8.16;100.00
16481;BME280;44634;54.110;12.138;2023-02-20T05:27:00;100646.59;;;8.07;100.00
16481;BME280;44634;54.110;12.138;2023-02-20T05:29:28;100644.09;;;8.06;100.00
16481;BME280;44634;54.110;12.138;2023-02-20T05:31:57;100619.03;;;8.23;100.00
16481;BME280;44634;54.110;12.138;2023-02-20T05:34:25;100613.63;;;8.24;100.00
16481;BME280;44634;54.110;12.138;2023-02-20T05:36:53;100607.91;;;8.19;100.00
16481;BME280;44634;54.110;12.138;2023-02-20T05:39:22;100611.34;;;8.31;100.00
16481;BME280;44634;54.110;12.138;2023-02-20T05:41:50;100608.00;;;8.40;100.00
16481;BME280;44634;54.110;12.138;2023-02-20T05:44:18;100611.81;;;8.36;100.00
16481;BME280;44634;54.110;12.138;2023-02-20T05:46:46;100627.41;;;8.28;100.00
16481;BME280;44634;54.110;12.138;2023-02-20T05:49:16;100616.09;;;8.05;100.00
16481;BME280;44634;54.110;12.138;2023-02-20T05:51:44;100627.84;;;8.33;100.00
16481;BME280;44634;54.110;12.138;2023-02-20T05:54:11;100583.25;;;8.52;100.00
16481;BME280;44634;54.110;12.138;2023-02-20T05:56:40;100556.00;;;8.42;100.00
16481;BME280;44634;54.110;12.138;2023-02-20T05:59:08;100541.66;;;8.35;100.00
16481;BME280;44634;54.110;12.138;2023-02-20T06:01:36;100543.69;;;8.43;100.00
16481;BME280;44634;54.110;12.138;2023-02-20T06:04:04;100565.94;;;8.39;100.00
16481;BME280;44634;54.110;12.138;2023-02-20T06:06:35;100547.72;;;8.47;100.00
16481;BME280;44634;54.110;12.138;2023-02-20T06:09:05;100568.72;;;8.37;100.00
16481;BME280;44634;54.110;12.138;2023-02-20T06:11:34;100549.25;;;8.49;100.00
16481;BME280;44634;54.110;12.138;2023-02-20T06:14:02;100530.63;;;8.41;100.00
16481;BME280;44634;54.110;12.138;2023-02-20T06:16:30;100544.88;;;8.39;100.00
16481;BME280;44634;54.110;12.138;2023-02-20T06:18:58;100544.97;;;8.69;100.00
16481;BME280;44634;54.110;12.138;2023-02-20T06:21:26;100529.34;;;8.56;100.00
16481;BME280;44634;54.110;12.138;2023-02-20T06:23:55;100505.19;;;8.82;100.00
16481;BME280;44634;54.110;12.138;2023-02-20T06:26:23;100523.47;;;8.53;100.00
16481;BME280;44634;54.110;12.138;2023-02-20T06:28:51;100517.16;;;8.65;100.00
16481;BME280;44634;54.110;12.138;2023-02-20T06:31:21;100534.94;;;8.93;100.00
16481;BME280;44634;54.110;12.138;2023-02-20T06:33:49;100530.34;;;8.86;100.00
16481;BME280;44634;54.110;12.138;2023-02-20T06:36:21;100533.81;;;8.86;100.00
16481;BME280;44634;54.110;12.138;2023-02-20T06:38:50;100499.41;;;8.88;100.00
16481;BME280;44634;54.110;12.138;2023-02-20T06:41:19;100514.44;;;9.07;100.00
16481;BME280;44634;54.110;12.138;2023-02-20T06:43:47;100514.88;;;8.51;100.00
16481;BME280;44634;54.110;12.138;2023-02-20T06:46:14;100519.78;;;8.86;100.00
16481;BME280;44634;54.110;12.138;2023-02-20T06:48:43;100554.50;;;8.91;100.00
16481;BME280;44634;54.110;12.138;2023-02-20T06:51:11;100512.03;;;8.84;100.00
16481;BME280;44634;54.110;12.138;2023-02-20T06:53:39;100520.28;;;8.80;100.00
16481;BME280;44634;54.110;12.138;2023-02-20T06:56:08;100535.69;;;8.75;100.00
16481;BME280;44634;54.110;12.138;2023-02-20T06:58:39;100545.00;;;8.79;100.00
16481;BME280;44634;54.110;12.138;2023-02-20T07:01:07;100534.34;;;9.20;100.00
16481;BME280;44634;54.110;12.138;2023-02-20T07:03:36;100545.81;;;9.00;100.00
16481;BME280;44634;54.110;12.138;2023-02-20T07:06:04;100510.56;;;9.01;100.00
16481;BME280;44634;54.110;12.138;2023-02-20T07:08:32;100531.81;;;8.79;100.00
16481;BME280;44634;54.110;12.138;2023-02-20T07:10:59;100508.44;;;8.64;100.00
16481;BME280;44634;54.110;12.138;2023-02-20T07:13:27;100491.63;;;9.27;100.00
16481;BME280;44634;54.110;12.138;2023-02-20T07:15:56;100526.84;;;9.56;100.00
16481;BME280;44634;54.110;12.138;2023-02-20T07:18:24;100572.69;;;9.24;100.00
16481;BME280;44634;54.110;12.138;2023-02-20T07:20:53;100531.03;;;9.18;100.00
16481;BME280;44634;54.110;12.138;2023-02-20T07:23:21;100562.13;;;9.24;100.00
16481;BME280;44634;54.110;12.138;2023-02-20T07:25:49;100557.41;;;9.68;100.00
16481;BME280;44634;54.110;12.138;2023-02-20T07:28:18;100560.41;;;9.44;100.00
16481;BME280;44634;54.110;12.138;2023-02-20T07:30:46;100542.31;;;9.40;100.00
16481;BME280;44634;54.110;12.138;2023-02-20T07:33:16;100560.59;;;9.62;100.00
16481;BME280;44634;54.110;12.138;2023-02-20T07:35:45;100571.56;;;9.58;100.00
16481;BME280;44634;54.110;12.138;2023-02-20T07:38:13;100558.13;;;9.70;100.00
16481;BME280;44634;54.110;12.138;2023-02-20T07:40:40;100538.94;;;9.78;100.00
16481;BME280;44634;54.110;12.138;2023-02-20T07:43:08;100543.50;;;9.66;100.00
16481;BME280;44634;54.110;12.138;2023-02-20T07:45:36;100552.16;;;9.78;100.00
16481;BME280;44634;54.110;12.138;2023-02-20T07:48:05;100548.53;;;9.79;100.00
16481;BME280;44634;54.110;12.138;2023-02-20T07:50:34;100538.53;;;9.82;100.00
16481;BME280;44634;54.110;12.138;2023-02-20T07:53:02;100550.78;;;9.93;100.00
16481;BME280;44634;54.110;12.138;2023-02-20T07:55:29;100584.63;;;9.69;100.00
16481;BME280;44634;54.110;12.138;2023-02-20T07:57:57;100535.59;;;9.76;100.00
16481;BME280;44634;54.110;12.138;2023-02-20T08:00:26;100566.03;;;9.80;100.00
16481;BME280;44634;54.110;12.138;2023-02-20T08:02:54;100570.34;;;9.71;100.00
16481;BME280;44634;54.110;12.138;2023-02-20T08:05:22;100519.91;;;9.94;100.00
16481;BME280;44634;54.110;12.138;2023-02-20T08:07:52;100539.78;;;9.88;100.00
16481;BME280;44634;54.110;12.138;2023-02-20T08:10:25;100494.88;;;10.07;100.00
16481;BME280;44634;54.110;12.138;2023-02-20T08:12:55;100513.09;;;9.81;100.00
16481;BME280;44634;54.110;12.138;2023-02-20T08:15:23;100518.50;;;9.80;100.00
16481;BME280;44634;54.110;12.138;2023-02-20T08:17:50;100502.09;;;9.67;100.00
16481;BME280;44634;54.110;12.138;2023-02-20T08:20:20;100489.88;;;9.75;100.00
16481;BME280;44634;54.110;12.138;2023-02-20T08:22:48;100481.81;;;9.77;100.00
16481;BME280;44634;54.110;12.138;2023-02-20T08:25:18;100482.66;;;9.58;100.00
16481;BME280;44634;54.110;12.138;2023-02-20T08:27:47;100482.53;;;9.69;100.00
16481;BME280;44634;54.110;12.138;2023-02-20T08:30:20;100471.97;;;9.69;100.00
16481;BME280;44634;54.110;12.138;2023-02-20T08:32:49;100446.69;;;9.76;100.00
16481;BME280;44634;54.110;12.138;2023-02-20T08:35:18;100425.56;;;9.76;100.00
16481;BME280;44634;54.110;12.138;2023-02-20T08:37:46;100440.97;;;9.81;100.00
16481;BME280;44634;54.110;12.138;2023-02-20T08:40:14;100405.50;;;9.93;100.00
16481;BME280;44634;54.110;12.138;2023-02-20T08:42:44;100447.47;;;10.06;100.00
16481;BME280;44634;54.110;12.138;2023-02-20T08:45:13;100421.34;;;9.83;100.00
16481;BME280;44634;54.110;12.138;2023-02-20T08:47:41;100404.00;;;9.91;100.00
16481;BME280;44634;54.110;12.138;2023-02-20T08:50:09;100403.03;;;9.82;100.00
16481;BME280;44634;54.110;12.138;2023-02-20T08:52:36;100415.38;;;10.01;100.00
16481;BME280;44634;54.110;12.138;2023-02-20T08:55:04;100437.09;;;9.85;100.00
16481;BME280;44634;54.110;12.138;2023-02-20T08:57:32;100396.06;;;9.91;100.00
16481;BME280;44634;54.110;12.138;2023-02-20T09:00:04;100433.34;;;9.78;100.00
16481;BME280;44634;54.110;12.138;2023-02-20T09:02:31;100364.53;;;9.99;100.00
16481;BME280;44634;54.110;12.138;2023-02-20T09:04:59;100403.56;;;9.95;100.00
16481;BME280;44634;54.110;12.138;2023-02-20T09:07:27;100403.41;;;10.06;100.00
16481;BME280;44634;54.110;12.138;2023-02-20T09:09:55;100367.03;;;9.81;100.00
16481;BME280;44634;54.110;12.138;2023-02-20T09:12:23;100363.22;;;10.12;100.00
16481;BME280;44634;54.110;12.138;2023-02-20T09:14:50;100364.56;;;10.36;100.00
16481;BME280;44634;54.110;12.138;2023-02-20T09:17:20;100352.06;;;10.19;100.00
16481;BME280;44634;54.110;12.138;2023-02-20T09:19:47;100349.91;;;10.04;100.00
16481;BME280;44634;54.110;12.138;2023-02-20T09:22:15;100372.59;;;9.68;100.00
16481;BME280;44634;54.110;12.138;2023-02-20T09:24:47;100355.97;;;10.24;100.00
16481;BME280;44634;54.110;12.138;2023-02-20T09:27:15;100353.91;;;10.08;100.00
16481;BME280;44634;54.110;12.138;2023-02-20T09:29:43;100336.66;;;10.24;100.00
16481;BME280;44634;54.110;12.138;2023-02-20T09:32:11;100334.72;;;10.16;100.00
16481;BME280;44634;54.110;12.138;2023-02-20T09:34:41;100338.25;;;10.44;100.00
16481;BME280;44634;54.110;12.138;2023-02-20T09:37:10;100333.22;;;9.94;100.00
16481;BME280;44634;54.110;12.138;2023-02-20T09:39:38;100352.41;;;10.06;100.00
16481;BME280;44634;54.110;12.138;2023-02-20T09:42:19;100312.03;;;10.23;100.00
16481;BME280;44634;54.110;12.138;2023-02-20T09:44:58;100316.09;;;9.71;100.00
16481;BME280;44634;54.110;12.138;2023-02-20T09:47:37;100336.69;;;10.04;100.00
16481;BME280;44634;54.110;12.138;2023-02-20T09:50:12;100317.31;;;9.76;100.00
16481;BME280;44634;54.110;12.138;2023-02-20T09:52:44;100339.50;;;9.93;100.00
16481;BME280;44634;54.110;12.138;2023-02-20T09:55:19;100342.19;;;10.30;100.00
16481;BME280;44634;54.110;12.138;2023-02-20T09:57:48;100334.50;;;9.80;100.00
16481;BME280;44634;54.110;12.138;2023-02-20T10:00:24;100370.91;;;9.96;100.00
16481;BME280;44634;54.110;12.138;2023-02-20T10:02:59;100480.44;;;9.82;100.00
16481;BME280;44634;54.110;12.138;2023-02-20T10:05:33;100538.81;;;9.89;100.00
16481;BME280;44634;54.110;12.138;2023-02-20T10:08:03;100624.50;;;9.56;100.00
16481;BME280;44634;54.110;12.138;2023-02-20T10:10:32;100648.66;;;10.01;100.00
16481;BME280;44634;54.110;12.138;2023-02-20T10:13:13;100700.72;;;9.49;100.00
16481;BME280;44634;54.110;12.138;2023-02-20T10:15:53;101031.84;;;9.45;100.00
16481;BME280;44634;54.110;12.138;2023-02-20T10:18:33;100983.34;;;9.90;100.00
16481;BME280;44634;54.110;12.138;2023-02-20T10:21:13;100933.97;;;10.11;100.00
16481;BME280;44634;54.110;12.138;2023-02-20T10:23:47;100913.84;;;9.89;100.00
16481;BME280;44634;54.110;12.138;2023-02-20T10:26:33;100885.19;;;9.84;100.00
16481;BME280;44634;54.110;12.138;2023-02-20T10:29:13;100881.56;;;9.86;100.00
16481;BME280;44634;54.110;12.138;2023-02-20T10:31:44;100929.59;;;9.79;100.00
16481;BME280;44634;54.110;12.138;2023-02-20T10:34:17;100921.34;;;9.94;100.00
16481;BME280;44634;54.110;12.138;2023-02-20T10:36:50;100906.16;;;10.07;100.00
16481;BME280;44634;54.110;12.138;2023-02-20T10:39:21;100903.06;;;9.81;100.00
16481;BME280;44634;54.110;12.138;2023-02-20T10:41:52;100899.72;;;9.79;100.00
16481;BME280;44634;54.110;12.138;2023-02-20T10:44:26;100895.44;;;10.08;100.00
16481;BME280;44634;54.110;12.138;2023-02-20T10:47:01;100906.28;;;10.05;100.00
16481;BME280;44634;54.110;12.138;2023-02-20T10:49:34;100893.47;;;10.01;100.00
16481;BME280;44634;54.110;12.138;2023-02-20T10:52:09;100899.19;;;10.06;100.00
16481;BME280;44634;54.110;12.138;2023-02-20T10:55:04;100861.72;;;10.42;100.00
16481;BME280;44634;54.110;12.138;2023-02-20T10:57:38;100871.09;;;10.26;100.00
16481;BME280;44634;54.110;12.138;2023-02-20T11:00:12;100865.50;;;10.50;100.00
16481;BME280;44634;54.110;12.138;2023-02-20T11:02:45;100812.34;;;10.43;100.00
16481;BME280;44634;54.110;12.138;2023-02-20T11:05:17;100858.81;;;10.46;100.00
16481;BME280;44634;54.110;12.138;2023-02-20T11:07:48;100886.16;;;10.35;100.00
16481;BME280;44634;54.110;12.138;2023-02-20T11:10:16;100812.09;;;10.65;100.00
16481;BME280;44634;54.110;12.138;2023-02-20T11:12:47;100764.09;;;10.20;100.00
16481;BME280;44634;54.110;12.138;2023-02-20T11:15:19;100777.06;;;10.23;100.00
16481;BME280;44634;54.110;12.138;2023-02-20T11:17:49;100811.75;;;10.30;100.00
16481;BME280;44634;54.110;12.138;2023-02-20T11:20:40;100783.59;;;10.59;100.00
16481;BME280;44634;54.110;12.138;2023-02-20T11:23:09;100738.22;;;10.64;100.00
16481;BME280;44634;54.110;12.138;2023-02-20T11:25:38;100718.59;;;10.66;100.00
16481;BME280;44634;54.110;12.138;2023-02-20T11:28:10;100728.91;;;10.60;100.00
16481;BME280;44634;54.110;12.138;2023-02-20T11:30:45;100696.03;;;10.33;100.00
16481;BME280;44634;54.110;12.138;2023-02-20T11:33:16;100728.75;;;10.42;100.00
16481;BME280;44634;54.110;12.138;2023-02-20T11:35:46;100709.81;;;10.66;100.00
16481;BME280;44634;54.110;12.138;2023-02-20T11:38:38;100724.56;;;10.68;100.00
16481;BME280;44634;54.110;12.138;2023-02-20T11:41:28;100658.44;;;10.97;100.00
16481;BME280;44634;54.110;12.138;2023-02-20T11:44:22;100611.41;;;10.91;100.00
16481;BME280;44634;54.110;12.138;2023-02-20T11:47:17;100633.13;;;10.76;100.00
16481;BME280;44634;54.110;12.138;2023-02-20T11:49:45;100653.06;;;10.60;100.00
16481;BME280;44634;54.110;12.138;2023-02-20T11:52:18;100622.28;;;10.88;100.00
16481;BME280;44634;54.110;12.138;2023-02-20T11:55:08;100607.56;;;10.57;100.00
16481;BME280;44634;54.110;12.138;2023-02-20T11:57:41;100650.41;;;10.60;100.00
16481;BME280;44634;54.110;12.138;2023-02-20T12:00:12;100638.44;;;10.37;100.00
16481;BME280;44634;54.110;12.138;2023-02-20T12:02:51;100652.47;;;10.86;100.00
16481;BME280;44634;54.110;12.138;2023-02-20T12:05:20;100631.88;;;10.70;100.00
16481;BME280;44634;54.110;12.138;2023-02-20T12:07:57;100633.44;;;10.72;100.00
16481;BME280;44634;54.110;12.138;2023-02-20T12:10:39;100581.25;;;11.12;100.00
16481;BME280;44634;54.110;12.138;2023-02-20T12:13:11;100580.09;;;10.77;100.00
16481;BME280;44634;54.110;12.138;2023-02-20T12:15:41;100575.41;;;10.52;100.00
16481;BME280;44634;54.110;12.138;2023-02-20T12:18:28;100612.56;;;10.60;100.00
16481;BME280;44634;54.110;12.138;2023-02-20T12:21:12;100600.59;;;11.22;100.00
16481;BME280;44634;54.110;12.138;2023-02-20T12:23:52;100571.88;;;10.90;100.00
16481;BME280;44634;54.110;12.138;2023-02-20T12:26:31;100565.22;;;10.76;100.00
16481;BME280;44634;54.110;12.138;2023-02-20T12:29:12;100639.16;;;10.58;100.00
16481;BME280;44634;54.110;12.138;2023-02-20T12:31:56;100610.31;;;10.55;100.00
16481;BME280;44634;54.110;12.138;2023-02-20T12:34:38;100590.44;;;10.70;100.00
16481;BME280;44634;54.110;12.138;2023-02-20T12:37:15;100593.63;;;10.55;100.00
16481;BME280;44634;54.110;12.138;2023-02-20T12:39:52;100580.25;;;10.85;100.00
16481;BME280;44634;54.110;12.138;2023-02-20T12:42:31;100543.66;;;11.45;100.00
16481;BME280;44634;54.110;12.138;2023-02-20T12:45:17;100494.84;;;11.30;100.00
16481;BME280;44634;54.110;12.138;2023-02-20T12:47:59;100498.97;;;11.15;100.00
16481;BME280;44634;54.110;12.138;2023-02-20T12:50:41;100499.84;;;10.96;100.00
16481;BME280;44634;54.110;12.138;2023-02-20T12:53:19;100504.50;;;11.39;100.00
16481;BME280;44634;54.110;12.138;2023-02-20T12:55:58;100505.34;;;11.12;100.00
16481;BME280;44634;54.110;12.138;2023-02-20T12:58:36;100463.28;;;11.19;100.00
16481;BME280;44634;54.110;12.138;2023-02-20T13:01:09;100425.59;;;11.88;100.00
16481;BME280;44634;54.110;12.138;2023-02-20T13:03:42;100434.03;;;11.38;100.00
16481;BME280;44634;54.110;12.138;2023-02-20T13:06:16;100428.06;;;11.54;100.00
16481;BME280;44634;54.110;12.138;2023-02-20T13:08:54;100452.19;;;11.33;100.00